createdAt,value
2022-10-03T00:00:25.902Z,13.93
2022-10-03T00:03:30.694Z,13.91
2022-10-03T00:06:09.269Z,13.93
2022-10-03T00:09:15.380Z,13.92
2022-10-03T00:11:55.613Z,13.86
2022-10-03T00:14:35.388Z,13.88
2022-10-03T00:17:11.273Z,13.92
2022-10-03T00:19:48.425Z,13.74
2022-10-03T00:22:28.290Z,13.72
2022-10-03T00:25:07.573Z,13.75
2022-10-03T00:27:41.701Z,13.71
2022-10-03T00:30:22.915Z,13.56
2022-10-03T00:33:11.766Z,13.54
2022-10-03T00:35:56.181Z,13.59
2022-10-03T00:39:03.542Z,13.61
2022-10-03T00:42:14.927Z,13.56
2022-10-03T00:45:09.303Z,13.35
2022-10-03T00:47:55.655Z,13.41
2022-10-03T00:50:53.541Z,13.38
2022-10-03T00:53:34.349Z,13.46
2022-10-03T00:56:24.102Z,13.44
2022-10-03T00:59:10.946Z,13.45
2022-10-03T01:01:45.700Z,13.44
2022-10-03T01:04:31.551Z,13.39
2022-10-03T01:07:12.303Z,13.50
2022-10-03T01:09:55.188Z,13.56
2022-10-03T01:12:58.953Z,13.52
2022-10-03T01:15:37.940Z,13.59
2022-10-03T01:18:19.473Z,13.61
2022-10-03T01:20:57.607Z,13.53
2022-10-03T01:24:09.243Z,13.56
2022-10-03T01:26:55.929Z,13.49
2022-10-03T01:29:51.256Z,13.49
2022-10-03T01:32:24.514Z,13.59
2022-10-03T01:35:01.386Z,13.58
2022-10-03T01:37:40.248Z,13.56
2022-10-03T01:40:18.991Z,13.50
2022-10-03T01:43:02.926Z,13.53
2022-10-03T01:45:43.231Z,13.44
2022-10-03T01:48:16.022Z,13.50
2022-10-03T01:50:53.459Z,13.35
2022-10-03T01:53:30.637Z,13.39
2022-10-03T01:56:04.972Z,13.41
2022-10-03T01:58:42.159Z,13.37
2022-10-03T02:01:16.522Z,13.35
2022-10-03T02:03:51.016Z,13.36
2022-10-03T02:06:25.309Z,13.36
2022-10-03T02:08:57.949Z,13.37
2022-10-03T02:11:34.827Z,13.48
2022-10-03T02:14:15.890Z,13.57
2022-10-03T02:16:47.662Z,13.63
2022-10-03T02:19:22.978Z,13.65
2022-10-03T02:21:53.182Z,13.73
2022-10-03T02:24:42.395Z,13.71
2022-10-03T02:27:52.585Z,13.67
2022-10-03T02:30:22.863Z,13.61
2022-10-03T02:33:31.906Z,13.61
2022-10-03T02:36:49.734Z,13.68
2022-10-03T02:39:38.977Z,13.73
2022-10-03T02:42:50.625Z,13.73
2022-10-03T02:46:01.285Z,13.65
2022-10-03T02:49:12.230Z,13.61
2022-10-03T02:52:09.002Z,13.51
2022-10-03T02:55:15.363Z,13.44
2022-10-03T02:58:10.450Z,13.33
2022-10-03T03:01:22.023Z,13.40
2022-10-03T03:04:23.559Z,13.38
2022-10-03T03:07:27.812Z,13.46
2022-10-03T03:10:39.125Z,13.49
2022-10-03T03:13:39.942Z,13.55
2022-10-03T03:16:34.379Z,13.52
2022-10-03T03:19:18.397Z,13.43
2022-10-03T03:21:54.825Z,13.38
2022-10-03T03:24:45.225Z,13.45
2022-10-03T03:27:40.503Z,13.34
2022-10-03T03:30:12.986Z,13.32
2022-10-03T03:32:54.345Z,13.39
2022-10-03T03:35:33.812Z,13.23
2022-10-03T03:38:16.120Z,13.18
2022-10-03T03:40:47.474Z,13.16
2022-10-03T03:43:34.332Z,13.24
2022-10-03T03:46:16.240Z,13.15
2022-10-03T03:49:09.148Z,13.19
2022-10-03T03:51:47.037Z,13.09
2022-10-03T03:54:40.242Z,13.21
2022-10-03T03:57:40.921Z,13.19
2022-10-03T04:00:15.770Z,13.30
2022-10-03T04:03:04.956Z,13.38
2022-10-03T04:05:46.240Z,13.36
2022-10-03T04:08:30.069Z,13.34
2022-10-03T04:11:07.166Z,13.32
2022-10-03T04:13:50.919Z,13.42
2022-10-03T04:16:50.449Z,13.37
2022-10-03T04:19:29.646Z,13.39
2022-10-03T04:22:15.599Z,13.51
2022-10-03T04:25:20.633Z,13.50
2022-10-03T04:28:22.427Z,13.43
2022-10-03T04:31:05.719Z,13.52
2022-10-03T04:33:51.366Z,13.53
2022-10-03T04:36:47.087Z,13.49
2022-10-03T04:39:27.427Z,13.57
2022-10-03T04:42:04.068Z,13.49
2022-10-03T04:44:45.578Z,13.44
2022-10-03T04:47:23.338Z,13.38
2022-10-03T04:49:56.932Z,13.35
2022-10-03T04:52:39.233Z,13.28
2022-10-03T04:55:16.221Z,13.32
2022-10-03T04:57:52.819Z,13.27
2022-10-03T05:00:25.439Z,13.30
2022-10-03T05:03:05.190Z,13.36
2022-10-03T05:05:49.453Z,13.33
2022-10-03T05:08:36.020Z,13.33
2022-10-03T05:11:12.561Z,13.36
2022-10-03T05:13:53.169Z,13.12
2022-10-03T05:16:30.790Z,13.24
2022-10-03T05:19:11.116Z,13.34
2022-10-03T05:21:45.660Z,13.33
2022-10-03T05:24:24.738Z,13.45
2022-10-03T05:27:01.608Z,13.35
2022-10-03T05:29:38.781Z,13.50
2022-10-03T05:32:19.219Z,13.26
2022-10-03T05:35:03.364Z,13.19
2022-10-03T05:37:48.770Z,13.07
2022-10-03T05:40:20.261Z,13.08
2022-10-03T05:43:02.636Z,13.05
2022-10-03T05:45:46.268Z,13.12
2022-10-03T05:48:24.423Z,13.03
2022-10-03T05:51:20.810Z,13.12
2022-10-03T05:54:15.453Z,13.19
2022-10-03T05:57:01.796Z,13.14
2022-10-03T05:59:43.630Z,13.14
2022-10-03T06:02:45.749Z,13.04
2022-10-03T06:05:18.212Z,12.97
2022-10-03T06:08:03.299Z,13.11
2022-10-03T06:10:46.187Z,12.91
2022-10-03T06:13:21.516Z,13.10
2022-10-03T06:15:58.133Z,13.02
2022-10-03T06:18:57.627Z,13.21
2022-10-03T06:21:47.309Z,13.20
2022-10-03T06:24:34.671Z,13.27
2022-10-03T06:27:34.866Z,13.20
2022-10-03T06:30:42.815Z,13.20
2022-10-03T06:33:55.169Z,13.30
2022-10-03T06:36:33.591Z,13.41
2022-10-03T06:39:56.398Z,13.40
2022-10-03T06:42:53.961Z,13.48
2022-10-03T06:45:53.600Z,13.50
2022-10-03T06:48:36.188Z,13.42
2022-10-03T06:51:44.663Z,13.51
2022-10-03T06:54:38.618Z,13.50
2022-10-03T06:57:49.322Z,13.62
2022-10-03T07:00:21.493Z,13.41
2022-10-03T07:03:19.805Z,13.54
2022-10-03T07:06:22.275Z,13.55
2022-10-03T07:09:28.617Z,13.56
2022-10-03T07:12:27.962Z,13.45
2022-10-03T07:15:43.621Z,13.64
2022-10-03T07:18:44.442Z,13.65
2022-10-03T07:21:40.397Z,13.63
2022-10-03T07:24:35.764Z,13.71
2022-10-03T07:27:21.011Z,13.29
2022-10-03T07:30:14.571Z,13.52
2022-10-03T07:33:12.950Z,13.68
2022-10-03T07:36:08.815Z,13.79
2022-10-03T07:39:24.131Z,14.01
2022-10-03T07:42:25.935Z,14.06
2022-10-03T07:45:30.453Z,14.23
2022-10-03T07:48:31.853Z,14.27
2022-10-03T07:51:15.028Z,14.25
2022-10-03T07:54:27.303Z,14.16
2022-10-03T07:57:20.165Z,14.00
2022-10-03T08:00:07.406Z,14.25
2022-10-03T08:03:00.758Z,14.34
2022-10-03T08:05:46.213Z,14.63
2022-10-03T08:08:38.087Z,14.70
2022-10-03T08:11:21.981Z,14.73
2022-10-03T08:14:02.344Z,14.97
2022-10-03T08:17:02.030Z,15.01
2022-10-03T08:19:59.472Z,14.89
2022-10-03T08:22:38.368Z,14.77
2022-10-03T08:25:27.987Z,14.74
2022-10-03T08:28:27.171Z,14.87
2022-10-03T08:31:21.093Z,14.61
2022-10-03T08:34:26.593Z,14.62
2022-10-03T08:37:12.119Z,14.53
2022-10-03T08:39:59.254Z,14.45
2022-10-03T08:42:59.893Z,14.84
2022-10-03T08:45:56.175Z,14.94
2022-10-03T08:48:59.775Z,15.28
2022-10-03T08:52:05.121Z,14.97
2022-10-03T08:55:00.128Z,15.33
2022-10-03T08:58:09.063Z,15.40
2022-10-03T09:01:14.661Z,15.57
2022-10-03T09:04:51.207Z,15.60
2022-10-03T09:07:38.078Z,15.58
2022-10-03T09:10:53.247Z,15.65
2022-10-03T09:14:06.254Z,15.76
2022-10-03T09:16:48.933Z,16.48
2022-10-03T09:20:02.364Z,16.57
2022-10-03T09:23:14.580Z,17.24
2022-10-03T09:26:18.666Z,17.38
2022-10-03T09:29:16.526Z,17.85
2022-10-03T09:32:30.611Z,17.32
2022-10-03T09:35:23.436Z,17.47
2022-10-03T09:38:23.465Z,16.85
2022-10-03T09:41:28.626Z,17.54
2022-10-03T09:44:17.607Z,18.26
2022-10-03T09:47:44.870Z,17.93
2022-10-03T09:50:55.261Z,17.29
2022-10-03T09:53:54.513Z,17.23
2022-10-03T09:57:05.193Z,16.74
2022-10-03T09:59:52.321Z,16.13
2022-10-03T10:02:51.928Z,16.35
2022-10-03T10:05:55.404Z,16.01
2022-10-03T10:08:42.930Z,15.97
2022-10-03T10:11:23.656Z,16.09
2022-10-03T10:14:21.019Z,16.50
2022-10-03T10:17:32.479Z,16.32
2022-10-03T10:20:11.469Z,16.09
2022-10-03T10:23:11.060Z,16.67
2022-10-03T10:26:19.791Z,16.87
2022-10-03T10:29:16.999Z,16.48
2022-10-03T10:32:19.146Z,16.40
2022-10-03T10:35:30.725Z,16.88
2022-10-03T10:38:34.984Z,16.75
2022-10-03T10:41:42.264Z,16.65
2022-10-03T10:44:57.402Z,17.15
2022-10-03T10:48:01.453Z,18.77
2022-10-03T10:51:05.148Z,20.54
2022-10-03T10:54:28.099Z,21.55
2022-10-03T10:57:09.476Z,22.54
2022-10-03T11:00:15.158Z,22.26
2022-10-03T11:03:42.610Z,23.43
2022-10-03T11:06:53.490Z,23.70
2022-10-03T11:09:47.460Z,25.90
2022-10-03T11:12:52.901Z,24.89
2022-10-03T11:16:07.631Z,23.80
2022-10-03T11:19:08.785Z,20.91
2022-10-03T11:22:18.147Z,19.10
2022-10-03T11:25:32.947Z,19.27
2022-10-03T11:28:54.837Z,18.99
2022-10-03T11:31:56.074Z,18.65
2022-10-03T11:35:14.496Z,18.27
2022-10-03T11:37:47.150Z,18.42
2022-10-03T11:40:33.976Z,19.72
2022-10-03T11:43:37.934Z,19.02
2022-10-03T11:46:23.386Z,18.67
2022-10-03T11:48:56.964Z,18.66
2022-10-03T11:51:38.879Z,18.41
2022-10-03T11:54:30.507Z,18.12
2022-10-03T11:57:09.466Z,17.71
2022-10-03T11:59:52.938Z,17.97
2022-10-03T12:02:55.361Z,19.63
2022-10-03T12:05:28.017Z,18.23
2022-10-03T12:08:28.914Z,18.74
2022-10-03T12:11:09.423Z,18.50
2022-10-03T12:13:46.786Z,19.29
2022-10-03T12:16:27.739Z,19.09
2022-10-03T12:19:05.341Z,18.94
2022-10-03T12:21:47.930Z,18.60
2022-10-03T12:24:29.877Z,19.38
2022-10-03T12:27:07.369Z,19.99
2022-10-03T12:29:41.071Z,20.09
2022-10-03T12:32:22.013Z,21.27
2022-10-03T12:34:59.334Z,22.57
2022-10-03T12:37:43.429Z,21.51
2022-10-03T12:40:20.225Z,21.48
2022-10-03T12:42:57.007Z,20.01
2022-10-03T12:45:33.101Z,19.01
2022-10-03T12:48:13.235Z,18.66
2022-10-03T12:50:47.691Z,18.06
2022-10-03T12:53:31.441Z,17.81
2022-10-03T12:56:07.702Z,17.84
2022-10-03T12:58:47.561Z,17.61
2022-10-03T13:01:28.447Z,17.73
2022-10-03T13:04:00.190Z,17.50
2022-10-03T13:07:02.299Z,17.27
2022-10-03T13:09:46.208Z,17.41
2022-10-03T13:12:27.811Z,17.41
2022-10-03T13:15:44.362Z,17.38
2022-10-03T13:18:30.345Z,17.52
2022-10-03T13:21:26.804Z,17.67
2022-10-03T13:24:00.228Z,17.45
2022-10-03T13:26:40.671Z,17.16
2022-10-03T13:29:25.303Z,17.28
2022-10-03T13:32:06.755Z,17.30
2022-10-03T13:34:45.261Z,17.25
2022-10-03T13:37:22.361Z,16.93
2022-10-03T13:39:53.701Z,17.07
2022-10-03T13:42:32.195Z,16.91
2022-10-03T13:45:04.906Z,16.91
2022-10-03T13:47:47.486Z,16.94
2022-10-03T13:50:21.533Z,16.79
2022-10-03T13:52:56.591Z,16.83
2022-10-03T13:55:33.022Z,16.73
2022-10-03T13:58:26.426Z,16.57
2022-10-03T14:01:13.700Z,16.67
2022-10-03T14:03:53.667Z,16.84
2022-10-03T14:06:37.358Z,16.84
2022-10-03T14:09:30.978Z,17.04
2022-10-03T14:12:07.092Z,16.93
2022-10-03T14:15:14.413Z,16.62
2022-10-03T14:17:51.447Z,16.64
2022-10-03T14:20:26.684Z,16.31
2022-10-03T14:23:16.240Z,16.47
2022-10-03T14:25:48.838Z,16.41
2022-10-03T14:28:26.434Z,16.51
2022-10-03T14:31:06.467Z,16.59
2022-10-03T14:33:44.602Z,16.43
2022-10-03T14:36:30.512Z,16.49
2022-10-03T14:39:26.771Z,16.49
2022-10-03T14:42:22.242Z,16.49
2022-10-03T14:44:56.565Z,16.50
2022-10-03T14:47:24.393Z,16.46
2022-10-03T14:49:59.518Z,16.33
2022-10-03T14:52:35.374Z,16.17
2022-10-03T14:55:14.028Z,16.25
2022-10-03T14:58:09.261Z,16.14
2022-10-03T15:00:42.963Z,16.24
2022-10-03T15:03:29.778Z,16.16
2022-10-03T15:06:21.118Z,16.26
2022-10-03T15:08:53.237Z,16.24
2022-10-03T15:11:27.943Z,16.15
2022-10-03T15:13:58.650Z,16.13
2022-10-03T15:16:27.573Z,16.25
2022-10-03T15:18:58.323Z,16.11
2022-10-03T15:21:28.416Z,16.07
2022-10-03T15:24:00.129Z,16.07
2022-10-03T15:26:34.111Z,15.82
2022-10-03T15:29:06.073Z,15.84
2022-10-03T15:31:36.647Z,15.75
2022-10-03T15:34:08.379Z,15.98
2022-10-03T15:36:40.095Z,15.94
2022-10-03T15:39:17.981Z,15.79
2022-10-03T15:41:54.260Z,15.80
2022-10-03T15:44:28.915Z,15.72
2022-10-03T15:47:01.624Z,15.64
2022-10-03T15:49:33.863Z,15.72
2022-10-03T15:52:12.063Z,15.67
2022-10-03T15:54:41.043Z,15.60
2022-10-03T15:57:20.011Z,15.34
2022-10-03T15:59:53.259Z,15.45
2022-10-03T16:02:27.241Z,15.52
2022-10-03T16:04:57.184Z,15.39
2022-10-03T16:07:34.921Z,15.30
2022-10-03T16:10:14.725Z,14.87
2022-10-03T16:13:04.039Z,14.87
2022-10-03T16:15:50.295Z,14.87
2022-10-03T16:18:54.755Z,14.66
2022-10-03T16:21:44.582Z,14.48
2022-10-03T16:24:29.650Z,14.53
2022-10-03T16:27:07.290Z,14.50
2022-10-03T16:29:39.745Z,14.43
2022-10-03T16:32:10.873Z,14.43
2022-10-03T16:34:43.637Z,14.38
2022-10-03T16:37:19.210Z,14.46
2022-10-03T16:39:54.922Z,14.42
2022-10-03T16:42:26.714Z,14.57
2022-10-03T16:44:58.630Z,14.52
2022-10-03T16:47:34.125Z,14.40
2022-10-03T16:50:19.575Z,14.43
2022-10-03T16:52:52.063Z,14.38
2022-10-03T16:55:23.853Z,14.34
2022-10-03T16:57:56.899Z,13.91
2022-10-03T17:00:32.676Z,13.65
2022-10-03T17:03:02.788Z,13.50
2022-10-03T17:05:38.316Z,13.36
2022-10-03T17:08:36.806Z,13.32
2022-10-03T17:10:58.281Z,13.27
2022-10-03T17:13:33.564Z,13.07
2022-10-03T17:16:09.345Z,12.99
2022-10-03T17:18:44.591Z,12.78
2022-10-03T17:21:23.583Z,12.61
2022-10-03T17:24:01.997Z,12.65
2022-10-03T17:26:35.939Z,12.77
2022-10-03T17:29:12.086Z,12.75
2022-10-03T17:31:46.533Z,12.78
2022-10-03T17:34:18.266Z,12.83
2022-10-03T17:37:11.762Z,12.80
2022-10-03T17:39:46.748Z,12.74
2022-10-03T17:42:29.029Z,12.78
2022-10-03T17:44:59.681Z,12.71
2022-10-03T17:47:39.124Z,12.70
2022-10-03T17:50:12.198Z,12.54
2022-10-03T17:52:42.488Z,12.58
2022-10-03T17:55:18.890Z,12.66
2022-10-03T17:57:50.219Z,12.67
2022-10-03T18:00:21.248Z,12.60
2022-10-03T18:02:57.048Z,12.70
2022-10-03T18:05:28.596Z,12.65
2022-10-03T18:07:58.068Z,12.67
2022-10-03T18:10:30.049Z,12.64
2022-10-03T18:13:02.093Z,12.47
2022-10-03T18:16:03.225Z,12.33
2022-10-03T18:19:00.752Z,12.21
2022-10-03T18:21:38.255Z,12.21
2022-10-03T18:24:32.632Z,12.22
2022-10-03T18:27:20.145Z,12.18
2022-10-03T18:29:52.987Z,12.10
2022-10-03T18:32:25.376Z,12.11
2022-10-03T18:35:06.588Z,12.05
2022-10-03T18:38:09.294Z,12.05
2022-10-03T18:40:41.575Z,12.07
2022-10-03T18:43:33.714Z,12.13
2022-10-03T18:46:14.233Z,12.08
2022-10-03T18:49:24.053Z,12.03
2022-10-03T18:51:46.116Z,12.03
2022-10-03T18:54:26.494Z,11.98
2022-10-03T18:57:08.730Z,11.97
2022-10-03T18:59:46.263Z,11.82
2022-10-03T19:02:21.066Z,11.79
2022-10-03T19:04:55.386Z,11.73
2022-10-03T19:07:26.187Z,12.00
2022-10-03T19:10:21.152Z,11.92
2022-10-03T19:12:53.057Z,11.97
2022-10-03T19:15:33.016Z,12.05
2022-10-03T19:18:14.042Z,12.16
2022-10-03T19:20:44.947Z,12.41
2022-10-03T19:23:18.739Z,12.35
2022-10-03T19:25:52.261Z,12.35
2022-10-03T19:28:23.899Z,12.24
2022-10-03T19:31:00.133Z,12.38
2022-10-03T19:33:30.125Z,12.25
2022-10-03T19:36:03.981Z,12.17
2022-10-03T19:38:37.191Z,12.14
2022-10-03T19:41:10.154Z,12.08
2022-10-03T19:43:41.482Z,11.97
2022-10-03T19:46:29.544Z,12.02
2022-10-03T19:49:19.445Z,11.77
2022-10-03T19:51:48.624Z,11.63
2022-10-03T19:54:34.858Z,11.58
2022-10-03T19:57:05.654Z,11.50
2022-10-03T19:59:46.328Z,11.36
2022-10-03T20:02:14.198Z,11.36
2022-10-03T20:04:42.188Z,11.22
2022-10-03T20:07:17.604Z,11.30
2022-10-03T20:09:57.369Z,11.22
2022-10-03T20:12:27.748Z,11.13
2022-10-03T20:15:01.531Z,11.15
2022-10-03T20:17:30.827Z,11.14
2022-10-03T20:20:03.157Z,11.23
2022-10-03T20:22:36.321Z,11.30
2022-10-03T20:25:09.046Z,11.21
2022-10-03T20:27:42.529Z,11.16
2022-10-03T20:30:25.370Z,11.23
2022-10-03T20:32:56.511Z,11.15
2022-10-03T20:35:26.361Z,11.14
2022-10-03T20:37:57.293Z,11.16
2022-10-03T20:40:35.118Z,11.28
2022-10-03T20:43:24.846Z,11.38
2022-10-03T20:46:13.004Z,11.38
2022-10-03T20:48:50.117Z,11.33
2022-10-03T20:51:22.873Z,11.26
2022-10-03T20:53:54.859Z,11.36
2022-10-03T20:56:34.717Z,11.43
2022-10-03T20:59:06.573Z,11.43
2022-10-03T21:01:38.294Z,11.42
2022-10-03T21:04:12.085Z,11.39
2022-10-03T21:06:53.827Z,11.35
2022-10-03T21:09:27.433Z,11.34
2022-10-03T21:11:57.155Z,11.22
2022-10-03T21:14:28.095Z,11.25
2022-10-03T21:16:57.326Z,11.29
2022-10-03T21:19:30.999Z,11.24
2022-10-03T21:22:01.507Z,11.10
2022-10-03T21:24:33.263Z,11.15
2022-10-03T21:27:06.471Z,11.00
2022-10-03T21:29:36.053Z,11.24
2022-10-03T21:32:23.189Z,10.99
2022-10-03T21:35:01.793Z,10.91
2022-10-03T21:37:36.801Z,10.91
2022-10-03T21:40:21.414Z,10.85
2022-10-03T21:43:02.735Z,10.75
2022-10-03T21:45:40.068Z,10.85
2022-10-03T21:48:20.174Z,10.90
2022-10-03T21:50:54.552Z,10.77
2022-10-03T21:53:31.188Z,10.78
2022-10-03T21:56:14.198Z,10.86
2022-10-03T21:59:07.576Z,10.69
2022-10-03T22:01:41.856Z,10.82
2022-10-03T22:04:16.646Z,10.71
2022-10-03T22:06:52.079Z,10.77
2022-10-03T22:09:19.783Z,10.43
2022-10-03T22:11:54.541Z,10.15
2022-10-03T22:14:37.646Z,10.13
2022-10-03T22:17:15.872Z,9.99
2022-10-03T22:19:48.348Z,9.98
2022-10-03T22:22:37.937Z,10.08
2022-10-03T22:25:15.537Z,10.14
2022-10-03T22:27:49.778Z,10.25
2022-10-03T22:30:21.894Z,10.34
2022-10-03T22:32:56.108Z,10.33
2022-10-03T22:35:52.432Z,10.22
2022-10-03T22:38:24.098Z,10.13
2022-10-03T22:40:52.347Z,10.04
2022-10-03T22:43:21.628Z,10.06
2022-10-03T22:45:53.720Z,10.19
2022-10-03T22:48:23.439Z,10.34
2022-10-03T22:50:53.479Z,10.16
2022-10-03T22:53:26.881Z,10.16
2022-10-03T22:55:58.439Z,10.17
2022-10-03T22:58:28.608Z,10.04
2022-10-03T23:01:01.191Z,10.04
2022-10-03T23:03:33.626Z,9.96
2022-10-03T23:06:29.754Z,10.11
2022-10-03T23:09:07.951Z,10.07
2022-10-03T23:11:37.728Z,10.09
2022-10-03T23:14:14.394Z,10.27
2022-10-03T23:16:53.380Z,10.06
2022-10-03T23:19:31.664Z,9.96
2022-10-03T23:22:01.179Z,9.83
2022-10-03T23:24:33.546Z,9.89
2022-10-03T23:27:36.832Z,9.76
2022-10-03T23:30:55.280Z,9.70
2022-10-03T23:33:51.133Z,9.70
2022-10-03T23:36:24.235Z,9.69
2022-10-03T23:39:02.413Z,9.65
2022-10-03T23:41:44.364Z,9.67
2022-10-03T23:44:41.996Z,9.64
2022-10-03T23:47:15.049Z,9.62
2022-10-03T23:49:48.173Z,9.59
2022-10-03T23:52:23.742Z,9.47
2022-10-03T23:54:54.344Z,9.48
2022-10-03T23:57:25.242Z,9.47
2022-10-03T23:59:52.971Z,9.44
